sensor_id;sensor_type;location;lat;lon;timestamp;P1;P2;P0
56688;PMS5003;42565;53.342;-1.534;2023-04-03T00:02:04;5;5;
56688;PMS5003;42565;53.342;-1.534;2023-04-03T00:04:31;6;5;
56688;PMS5003;42565;53.342;-1.534;2023-04-03T00:06:58;3;3;
56688;PMS5003;42565;53.342;-1.534;2023-04-03T00:09:25;6;6;
56688;PMS5003;42565;53.342;-1.534;2023-04-03T00:11:51;5;5;
56688;PMS5003;42565;53.342;-1.534;2023-04-03T00:14:18;5;4;
56688;PMS5003;42565;53.342;-1.534;2023-04-03T00:16:46;6;5;
56688;PMS5003;42565;53.342;-1.534;2023-04-03T00:19:17;5;4;
56688;PMS5003;42565;53.342;-1.534;2023-04-03T00:21:44;4;4;
56688;PMS5003;42565;53.342;-1.534;2023-04-03T00:24:11;4;3;
56688;PMS5003;42565;53.342;-1.534;2023-04-03T00:26:38;5;5;
56688;PMS5003;42565;53.342;-1.534;2023-04-03T00:29:05;4;4;
56688;PMS5003;42565;53.342;-1.534;2023-04-03T00:31:31;5;4;
56688;PMS5003;42565;53.342;-1.534;2023-04-03T00:33:59;5;5;
56688;PMS5003;42565;53.342;-1.534;2023-04-03T00:36:25;4;4;
56688;PMS5003;42565;53.342;-1.534;2023-04-03T00:38:52;3;3;
56688;PMS5003;42565;53.342;-1.534;2023-04-03T00:41:19;4;4;
56688;PMS5003;42565;53.342;-1.534;2023-04-03T00:43:46;4;4;
56688;PMS5003;42565;53.342;-1.534;2023-04-03T00:46:13;3;3;
56688;PMS5003;42565;53.342;-1.534;2023-04-03T00:48:40;6;5;
56688;PMS5003;42565;53.342;-1.534;2023-04-03T00:51:11;4;3;
56688;PMS5003;42565;53.342;-1.534;2023-04-03T00:53:41;4;4;
56688;PMS5003;42565;53.342;-1.534;2023-04-03T00:56:13;4;3;
56688;PMS5003;42565;53.342;-1.534;2023-04-03T00:58:44;3;3;
56688;PMS5003;42565;53.342;-1.534;2023-04-03T01:01:16;5;5;
56688;PMS5003;42565;53.342;-1.534;2023-04-03T01:03:47;5;5;
56688;PMS5003;42565;53.342;-1.534;2023-04-03T01:06:15;3;3;
56688;PMS5003;42565;53.342;-1.534;2023-04-03T01:08:45;4;4;
56688;PMS5003;42565;53.342;-1.534;2023-04-03T01:11:15;8;5;
56688;PMS5003;42565;53.342;-1.534;2023-04-03T01:13:43;6;5;
56688;PMS5003;42565;53.342;-1.534;2023-04-03T01:16:10;5;5;
56688;PMS5003;42565;53.342;-1.534;2023-04-03T01:18:38;4;3;
56688;PMS5003;42565;53.342;-1.534;2023-04-03T01:21:27;6;5;
56688;PMS5003;42565;53.342;-1.534;2023-04-03T01:24:40;5;5;
56688;PMS5003;42565;53.342;-1.534;2023-04-03T01:27:08;5;5;
56688;PMS5003;42565;53.342;-1.534;2023-04-03T01:29:37;3;3;
56688;PMS5003;42565;53.342;-1.534;2023-04-03T01:32:05;4;3;
56688;PMS5003;42565;53.342;-1.534;2023-04-03T01:34:33;6;5;
56688;PMS5003;42565;53.342;-1.534;2023-04-03T01:36:59;3;3;
56688;PMS5003;42565;53.342;-1.534;2023-04-03T01:39:26;7;5;
56688;PMS5003;42565;53.342;-1.534;2023-04-03T01:41:53;5;4;
56688;PMS5003;42565;53.342;-1.534;2023-04-03T01:44:20;4;4;
56688;PMS5003;42565;53.342;-1.534;2023-04-03T01:46:46;6;5;
56688;PMS5003;42565;53.342;-1.534;2023-04-03T01:49:13;4;4;
56688;PMS5003;42565;53.342;-1.534;2023-04-03T01:51:41;5;4;
56688;PMS5003;42565;53.342;-1.534;2023-04-03T01:54:08;5;4;
56688;PMS5003;42565;53.342;-1.534;2023-04-03T01:56:35;6;5;
56688;PMS5003;42565;53.342;-1.534;2023-04-03T01:59:02;5;5;
56688;PMS5003;42565;53.342;-1.534;2023-04-03T02:01:29;4;3;
56688;PMS5003;42565;53.342;-1.534;2023-04-03T02:03:55;8;4;
56688;PMS5003;42565;53.342;-1.534;2023-04-03T02:06:23;6;6;
56688;PMS5003;42565;53.342;-1.534;2023-04-03T02:08:50;5;4;
56688;PMS5003;42565;53.342;-1.534;2023-04-03T02:11:17;4;3;
56688;PMS5003;42565;53.342;-1.534;2023-04-03T02:13:44;4;4;
56688;PMS5003;42565;53.342;-1.534;2023-04-03T02:16:11;4;3;
56688;PMS5003;42565;53.342;-1.534;2023-04-03T02:18:38;3;2;
56688;PMS5003;42565;53.342;-1.534;2023-04-03T02:21:05;2;2;
56688;PMS5003;42565;53.342;-1.534;2023-04-03T02:23:33;4;3;
56688;PMS5003;42565;53.342;-1.534;2023-04-03T02:26:04;4;3;
56688;PMS5003;42565;53.342;-1.534;2023-04-03T02:28:33;6;5;
56688;PMS5003;42565;53.342;-1.534;2023-04-03T02:31:01;5;4;
56688;PMS5003;42565;53.342;-1.534;2023-04-03T02:33:29;4;2;
56688;PMS5003;42565;53.342;-1.534;2023-04-03T02:35:57;3;3;
56688;PMS5003;42565;53.342;-1.534;2023-04-03T02:38:25;2;2;
56688;PMS5003;42565;53.342;-1.534;2023-04-03T02:40:52;5;4;
56688;PMS5003;42565;53.342;-1.534;2023-04-03T02:43:19;2;1;
56688;PMS5003;42565;53.342;-1.534;2023-04-03T02:45:45;5;4;
56688;PMS5003;42565;53.342;-1.534;2023-04-03T02:48:12;3;3;
56688;PMS5003;42565;53.342;-1.534;2023-04-03T02:50:39;4;3;
56688;PMS5003;42565;53.342;-1.534;2023-04-03T02:53:07;4;3;
56688;PMS5003;42565;53.342;-1.534;2023-04-03T02:55:34;5;5;
56688;PMS5003;42565;53.342;-1.534;2023-04-03T02:58:01;4;3;
56688;PMS5003;42565;53.342;-1.534;2023-04-03T03:00:28;5;5;
56688;PMS5003;42565;53.342;-1.534;2023-04-03T03:02:56;3;3;
56688;PMS5003;42565;53.342;-1.534;2023-04-03T03:05:23;5;4;
56688;PMS5003;42565;53.342;-1.534;2023-04-03T03:07:50;3;2;
56688;PMS5003;42565;53.342;-1.534;2023-04-03T03:10:16;5;3;
56688;PMS5003;42565;53.342;-1.534;2023-04-03T03:12:43;5;5;
56688;PMS5003;42565;53.342;-1.534;2023-04-03T03:15:10;3;2;
56688;PMS5003;42565;53.342;-1.534;2023-04-03T03:17:37;3;3;
56688;PMS5003;42565;53.342;-1.534;2023-04-03T03:20:05;2;2;
56688;PMS5003;42565;53.342;-1.534;2023-04-03T03:22:33;5;4;
56688;PMS5003;42565;53.342;-1.534;2023-04-03T03:25:01;4;4;
56688;PMS5003;42565;53.342;-1.534;2023-04-03T03:27:28;3;2;
56688;PMS5003;42565;53.342;-1.534;2023-04-03T03:29:55;5;4;
56688;PMS5003;42565;53.342;-1.534;2023-04-03T03:32:21;4;3;
56688;PMS5003;42565;53.342;-1.534;2023-04-03T03:34:48;3;3;
56688;PMS5003;42565;53.342;-1.534;2023-04-03T03:37:15;2;2;
56688;PMS5003;42565;53.342;-1.534;2023-04-03T03:39:42;2;2;
56688;PMS5003;42565;53.342;-1.534;2023-04-03T03:42:08;4;4;
56688;PMS5003;42565;53.342;-1.534;2023-04-03T03:44:35;3;3;
56688;PMS5003;42565;53.342;-1.534;2023-04-03T03:47:02;4;4;
56688;PMS5003;42565;53.342;-1.534;2023-04-03T03:49:29;4;4;
56688;PMS5003;42565;53.342;-1.534;2023-04-03T03:51:56;4;3;
56688;PMS5003;42565;53.342;-1.534;2023-04-03T03:54:23;5;4;
56688;PMS5003;42565;53.342;-1.534;2023-04-03T03:56:50;6;4;
56688;PMS5003;42565;53.342;-1.534;2023-04-03T03:59:17;2;2;
56688;PMS5003;42565;53.342;-1.534;2023-04-03T04:01:44;5;3;
56688;PMS5003;42565;53.342;-1.534;2023-04-03T04:04:11;5;4;
56688;PMS5003;42565;53.342;-1.534;2023-04-03T04:06:38;7;5;
56688;PMS5003;42565;53.342;-1.534;2023-04-03T04:09:05;4;4;
56688;PMS5003;42565;53.342;-1.534;2023-04-03T04:11:31;4;3;
56688;PMS5003;42565;53.342;-1.534;2023-04-03T04:13:58;4;4;
56688;PMS5003;42565;53.342;-1.534;2023-04-03T04:16:25;4;3;
56688;PMS5003;42565;53.342;-1.534;2023-04-03T04:18:52;6;5;
56688;PMS5003;42565;53.342;-1.534;2023-04-03T04:21:19;7;5;
56688;PMS5003;42565;53.342;-1.534;2023-04-03T04:23:46;5;3;
56688;PMS5003;42565;53.342;-1.534;2023-04-03T04:26:13;3;3;
56688;PMS5003;42565;53.342;-1.534;2023-04-03T04:28:39;4;4;
56688;PMS5003;42565;53.342;-1.534;2023-04-03T04:31:06;6;5;
56688;PMS5003;42565;53.342;-1.534;2023-04-03T04:33:34;4;4;
56688;PMS5003;42565;53.342;-1.534;2023-04-03T04:36:00;5;4;
56688;PMS5003;42565;53.342;-1.534;2023-04-03T04:38:27;4;4;
56688;PMS5003;42565;53.342;-1.534;2023-04-03T04:40:55;4;4;
56688;PMS5003;42565;53.342;-1.534;2023-04-03T04:43:22;4;4;
56688;PMS5003;42565;53.342;-1.534;2023-04-03T04:45:48;5;5;
56688;PMS5003;42565;53.342;-1.534;2023-04-03T04:48:25;4;4;
56688;PMS5003;42565;53.342;-1.534;2023-04-03T04:50:52;5;4;
56688;PMS5003;42565;53.342;-1.534;2023-04-03T04:53:19;4;3;
56688;PMS5003;42565;53.342;-1.534;2023-04-03T04:55:46;4;4;
56688;PMS5003;42565;53.342;-1.534;2023-04-03T04:58:13;5;4;
56688;PMS5003;42565;53.342;-1.534;2023-04-03T05:00:39;4;4;
56688;PMS5003;42565;53.342;-1.534;2023-04-03T05:03:06;6;5;
56688;PMS5003;42565;53.342;-1.534;2023-04-03T05:05:34;5;4;
56688;PMS5003;42565;53.342;-1.534;2023-04-03T05:08:00;3;3;
56688;PMS5003;42565;53.342;-1.534;2023-04-03T05:10:27;5;3;
56688;PMS5003;42565;53.342;-1.534;2023-04-03T05:12:55;5;4;
56688;PMS5003;42565;53.342;-1.534;2023-04-03T05:15:22;4;3;
56688;PMS5003;42565;53.342;-1.534;2023-04-03T05:17:49;3;3;
56688;PMS5003;42565;53.342;-1.534;2023-04-03T05:20:16;3;2;
56688;PMS5003;42565;53.342;-1.534;2023-04-03T05:22:43;6;5;
56688;PMS5003;42565;53.342;-1.534;2023-04-03T05:25:10;3;3;
56688;PMS5003;42565;53.342;-1.534;2023-04-03T05:27:36;3;3;
56688;PMS5003;42565;53.342;-1.534;2023-04-03T05:30:03;5;3;
56688;PMS5003;42565;53.342;-1.534;2023-04-03T05:32:32;4;3;
56688;PMS5003;42565;53.342;-1.534;2023-04-03T05:34:59;5;3;
56688;PMS5003;42565;53.342;-1.534;2023-04-03T05:37:26;3;3;
56688;PMS5003;42565;53.342;-1.534;2023-04-03T05:39:53;3;3;
56688;PMS5003;42565;53.342;-1.534;2023-04-03T05:42:19;6;5;
56688;PMS5003;42565;53.342;-1.534;2023-04-03T05:44:46;4;3;
56688;PMS5003;42565;53.342;-1.534;2023-04-03T05:47:13;3;3;
56688;PMS5003;42565;53.342;-1.534;2023-04-03T05:49:40;2;2;
56688;PMS5003;42565;53.342;-1.534;2023-04-03T05:52:09;3;3;
56688;PMS5003;42565;53.342;-1.534;2023-04-03T05:54:44;3;2;
56688;PMS5003;42565;53.342;-1.534;2023-04-03T05:57:11;3;2;
56688;PMS5003;42565;53.342;-1.534;2023-04-03T05:59:38;3;3;
56688;PMS5003;42565;53.342;-1.534;2023-04-03T06:02:05;3;3;
56688;PMS5003;42565;53.342;-1.534;2023-04-03T06:04:32;4;4;
56688;PMS5003;42565;53.342;-1.534;2023-04-03T06:06:59;5;5;
56688;PMS5003;42565;53.342;-1.534;2023-04-03T06:09:26;1;1;
56688;PMS5003;42565;53.342;-1.534;2023-04-03T06:11:55;3;3;
56688;PMS5003;42565;53.342;-1.534;2023-04-03T06:14:23;5;3;
56688;PMS5003;42565;53.342;-1.534;2023-04-03T06:16:51;5;4;
56688;PMS5003;42565;53.342;-1.534;2023-04-03T06:19:19;3;2;
56688;PMS5003;42565;53.342;-1.534;2023-04-03T06:21:47;4;3;
56688;PMS5003;42565;53.342;-1.534;2023-04-03T06:24:15;3;2;
56688;PMS5003;42565;53.342;-1.534;2023-04-03T06:26:43;5;4;
56688;PMS5003;42565;53.342;-1.534;2023-04-03T06:29:11;6;6;
56688;PMS5003;42565;53.342;-1.534;2023-04-03T06:31:37;4;3;
56688;PMS5003;42565;53.342;-1.534;2023-04-03T06:34:04;3;3;
56688;PMS5003;42565;53.342;-1.534;2023-04-03T06:36:32;5;5;
56688;PMS5003;42565;53.342;-1.534;2023-04-03T06:39:00;5;5;
56688;PMS5003;42565;53.342;-1.534;2023-04-03T06:41:27;4;3;
56688;PMS5003;42565;53.342;-1.534;2023-04-03T06:43:54;5;5;
56688;PMS5003;42565;53.342;-1.534;2023-04-03T06:46:22;4;4;
56688;PMS5003;42565;53.342;-1.534;2023-04-03T06:48:50;4;4;
56688;PMS5003;42565;53.342;-1.534;2023-04-03T06:51:18;5;4;
56688;PMS5003;42565;53.342;-1.534;2023-04-03T06:53:47;4;4;
56688;PMS5003;42565;53.342;-1.534;2023-04-03T06:56:16;5;4;
56688;PMS5003;42565;53.342;-1.534;2023-04-03T06:58:43;6;6;
56688;PMS5003;42565;53.342;-1.534;2023-04-03T07:01:12;6;4;
56688;PMS5003;42565;53.342;-1.534;2023-04-03T07:03:41;3;3;
56688;PMS5003;42565;53.342;-1.534;2023-04-03T07:06:09;3;3;
56688;PMS5003;42565;53.342;-1.534;2023-04-03T07:08:38;3;3;
56688;PMS5003;42565;53.342;-1.534;2023-04-03T07:11:06;5;4;
56688;PMS5003;42565;53.342;-1.534;2023-04-03T07:13:34;3;3;
56688;PMS5003;42565;53.342;-1.534;2023-04-03T07:16:02;4;2;
56688;PMS5003;42565;53.342;-1.534;2023-04-03T07:18:29;6;5;
56688;PMS5003;42565;53.342;-1.534;2023-04-03T07:20:57;3;3;
56688;PMS5003;42565;53.342;-1.534;2023-04-03T07:23:25;4;4;
56688;PMS5003;42565;53.342;-1.534;2023-04-03T07:25:52;3;3;
56688;PMS5003;42565;53.342;-1.534;2023-04-03T07:28:21;3;2;
56688;PMS5003;42565;53.342;-1.534;2023-04-03T07:30:50;3;3;
56688;PMS5003;42565;53.342;-1.534;2023-04-03T07:33:18;4;4;
56688;PMS5003;42565;53.342;-1.534;2023-04-03T07:35:47;4;4;
56688;PMS5003;42565;53.342;-1.534;2023-04-03T07:38:15;3;3;
56688;PMS5003;42565;53.342;-1.534;2023-04-03T07:40:45;4;3;
56688;PMS5003;42565;53.342;-1.534;2023-04-03T07:43:13;5;4;
56688;PMS5003;42565;53.342;-1.534;2023-04-03T07:45:40;4;4;
56688;PMS5003;42565;53.342;-1.534;2023-04-03T07:48:08;7;4;
56688;PMS5003;42565;53.342;-1.534;2023-04-03T07:50:35;4;3;
56688;PMS5003;42565;53.342;-1.534;2023-04-03T07:53:03;5;4;
56688;PMS5003;42565;53.342;-1.534;2023-04-03T07:55:31;2;2;
56688;PMS5003;42565;53.342;-1.534;2023-04-03T07:57:59;4;3;
56688;PMS5003;42565;53.342;-1.534;2023-04-03T08:00:26;5;5;
56688;PMS5003;42565;53.342;-1.534;2023-04-03T08:02:53;7;5;
56688;PMS5003;42565;53.342;-1.534;2023-04-03T08:05:20;3;3;
56688;PMS5003;42565;53.342;-1.534;2023-04-03T08:07:48;4;4;
56688;PMS5003;42565;53.342;-1.534;2023-04-03T08:10:16;3;3;
56688;PMS5003;42565;53.342;-1.534;2023-04-03T08:12:45;2;2;
56688;PMS5003;42565;53.342;-1.534;2023-04-03T08:15:14;6;5;
56688;PMS5003;42565;53.342;-1.534;2023-04-03T08:17:41;2;2;
56688;PMS5003;42565;53.342;-1.534;2023-04-03T08:20:09;5;3;
56688;PMS5003;42565;53.342;-1.534;2023-04-03T08:22:37;5;5;
56688;PMS5003;42565;53.342;-1.534;2023-04-03T08:25:04;2;2;
56688;PMS5003;42565;53.342;-1.534;2023-04-03T08:27:32;1;0;
56688;PMS5003;42565;53.342;-1.534;2023-04-03T08:30:00;2;2;
56688;PMS5003;42565;53.342;-1.534;2023-04-03T08:32:27;2;2;
56688;PMS5003;42565;53.342;-1.534;2023-04-03T08:34:53;1;1;
56688;PMS5003;42565;53.342;-1.534;2023-04-03T08:37:20;3;3;
56688;PMS5003;42565;53.342;-1.534;2023-04-03T08:39:48;2;2;
56688;PMS5003;42565;53.342;-1.534;2023-04-03T08:42:16;3;3;
56688;PMS5003;42565;53.342;-1.534;2023-04-03T08:44:55;1;1;
56688;PMS5003;42565;53.342;-1.534;2023-04-03T08:47:28;2;2;
56688;PMS5003;42565;53.342;-1.534;2023-04-03T08:50:06;1;1;
56688;PMS5003;42565;53.342;-1.534;2023-04-03T08:52:38;1;1;
56688;PMS5003;42565;53.342;-1.534;2023-04-03T08:55:13;2;0;
56688;PMS5003;42565;53.342;-1.534;2023-04-03T08:57:49;3;2;
56688;PMS5003;42565;53.342;-1.534;2023-04-03T09:00:25;2;2;
56688;PMS5003;42565;53.342;-1.534;2023-04-03T09:02:55;3;2;
56688;PMS5003;42565;53.342;-1.534;2023-04-03T09:05:27;4;2;
56688;PMS5003;42565;53.342;-1.534;2023-04-03T09:08:03;3;3;
56688;PMS5003;42565;53.342;-1.534;2023-04-03T09:10:34;2;2;
56688;PMS5003;42565;53.342;-1.534;2023-04-03T09:13:07;4;2;
56688;PMS5003;42565;53.342;-1.534;2023-04-03T09:15:40;2;2;
56688;PMS5003;42565;53.342;-1.534;2023-04-03T09:18:11;1;1;
56688;PMS5003;42565;53.342;-1.534;2023-04-03T09:20:43;3;2;
56688;PMS5003;42565;53.342;-1.534;2023-04-03T09:23:18;3;2;
56688;PMS5003;42565;53.342;-1.534;2023-04-03T09:25:50;4;2;
56688;PMS5003;42565;53.342;-1.534;2023-04-03T09:28:21;3;2;
56688;PMS5003;42565;53.342;-1.534;2023-04-03T09:30:48;2;2;
56688;PMS5003;42565;53.342;-1.534;2023-04-03T09:33:14;1;1;
56688;PMS5003;42565;53.342;-1.534;2023-04-03T09:35:43;2;2;
56688;PMS5003;42565;53.342;-1.534;2023-04-03T09:38:15;3;2;
56688;PMS5003;42565;53.342;-1.534;2023-04-03T09:40:44;2;2;
56688;PMS5003;42565;53.342;-1.534;2023-04-03T09:43:29;3;3;
56688;PMS5003;42565;53.342;-1.534;2023-04-03T09:46:16;2;2;
56688;PMS5003;42565;53.342;-1.534;2023-04-03T09:48:50;3;3;
56688;PMS5003;42565;53.342;-1.534;2023-04-03T09:51:18;3;2;
56688;PMS5003;42565;53.342;-1.534;2023-04-03T09:53:45;3;2;
56688;PMS5003;42565;53.342;-1.534;2023-04-03T09:56:20;3;3;
56688;PMS5003;42565;53.342;-1.534;2023-04-03T09:58:51;5;4;
56688;PMS5003;42565;53.342;-1.534;2023-04-03T10:01:35;6;5;
56688;PMS5003;42565;53.342;-1.534;2023-04-03T10:04:06;4;4;
56688;PMS5003;42565;53.342;-1.534;2023-04-03T10:06:37;5;5;
56688;PMS5003;42565;53.342;-1.534;2023-04-03T10:09:06;7;5;
56688;PMS5003;42565;53.342;-1.534;2023-04-03T10:11:48;6;6;
56688;PMS5003;42565;53.342;-1.534;2023-04-03T10:14:24;4;4;
56688;PMS5003;42565;53.342;-1.534;2023-04-03T10:16:52;6;6;
56688;PMS5003;42565;53.342;-1.534;2023-04-03T10:19:34;4;3;
56688;PMS5003;42565;53.342;-1.534;2023-04-03T10:22:11;2;2;
56688;PMS5003;42565;53.342;-1.534;2023-04-03T10:24:48;7;4;
56688;PMS5003;42565;53.342;-1.534;2023-04-03T10:27:23;6;4;
56688;PMS5003;42565;53.342;-1.534;2023-04-03T10:29:59;3;3;
56688;PMS5003;42565;53.342;-1.534;2023-04-03T10:32:38;4;3;
56688;PMS5003;42565;53.342;-1.534;2023-04-03T10:35:16;5;4;
56688;PMS5003;42565;53.342;-1.534;2023-04-03T10:37:50;4;4;
56688;PMS5003;42565;53.342;-1.534;2023-04-03T10:40:29;5;4;
56688;PMS5003;42565;53.342;-1.534;2023-04-03T10:43:02;4;3;
56688;PMS5003;42565;53.342;-1.534;2023-04-03T10:45:43;5;5;
56688;PMS5003;42565;53.342;-1.534;2023-04-03T10:48:23;5;4;
56688;PMS5003;42565;53.342;-1.534;2023-04-03T10:51:01;5;5;
56688;PMS5003;42565;53.342;-1.534;2023-04-03T10:53:36;6;6;
56688;PMS5003;42565;53.342;-1.534;2023-04-03T10:56:10;8;7;
56688;PMS5003;42565;53.342;-1.534;2023-04-03T10:58:43;6;5;
56688;PMS5003;42565;53.342;-1.534;2023-04-03T11:01:16;6;6;
56688;PMS5003;42565;53.342;-1.534;2023-04-03T11:03:47;6;6;
56688;PMS5003;42565;53.342;-1.534;2023-04-03T11:06:18;5;5;
56688;PMS5003;42565;53.342;-1.534;2023-04-03T11:08:49;5;4;
56688;PMS5003;42565;53.342;-1.534;2023-04-03T11:11:20;5;4;
56688;PMS5003;42565;53.342;-1.534;2023-04-03T11:13:52;4;4;
56688;PMS5003;42565;53.342;-1.534;2023-04-03T11:16:25;5;4;
56688;PMS5003;42565;53.342;-1.534;2023-04-03T11:18:56;4;3;
56688;PMS5003;42565;53.342;-1.534;2023-04-03T11:21:31;4;4;
56688;PMS5003;42565;53.342;-1.534;2023-04-03T11:24:03;6;4;
56688;PMS5003;42565;53.342;-1.534;2023-04-03T11:26:41;9;5;
56688;PMS5003;42565;53.342;-1.534;2023-04-03T11:29:09;4;4;
56688;PMS5003;42565;53.342;-1.534;2023-04-03T11:31:45;5;5;
56688;PMS5003;42565;53.342;-1.534;2023-04-03T11:34:33;6;5;
56688;PMS5003;42565;53.342;-1.534;2023-04-03T11:37:04;5;5;
56688;PMS5003;42565;53.342;-1.534;2023-04-03T11:39:39;5;5;
56688;PMS5003;42565;53.342;-1.534;2023-04-03T11:42:17;4;3;
56688;PMS5003;42565;53.342;-1.534;2023-04-03T11:44:53;6;4;
56688;PMS5003;42565;53.342;-1.534;2023-04-03T11:47:49;5;5;
56688;PMS5003;42565;53.342;-1.534;2023-04-03T11:50:41;5;5;
56688;PMS5003;42565;53.342;-1.534;2023-04-03T11:53:27;6;5;
56688;PMS5003;42565;53.342;-1.534;2023-04-03T11:55:57;6;6;
56688;PMS5003;42565;53.342;-1.534;2023-04-03T11:58:28;6;5;
56688;PMS5003;42565;53.342;-1.534;2023-04-03T12:00:58;5;5;
56688;PMS5003;42565;53.342;-1.534;2023-04-03T12:04:17;8;7;
56688;PMS5003;42565;53.342;-1.534;2023-04-03T12:06:51;7;6;
56688;PMS5003;42565;53.342;-1.534;2023-04-03T12:09:29;6;6;
56688;PMS5003;42565;53.342;-1.534;2023-04-03T12:12:27;7;7;
56688;PMS5003;42565;53.342;-1.534;2023-04-03T12:15:11;7;6;
56688;PMS5003;42565;53.342;-1.534;2023-04-03T12:17:45;7;7;
56688;PMS5003;42565;53.342;-1.534;2023-04-03T12:21:22;6;6;
56688;PMS5003;42565;53.342;-1.534;2023-04-03T12:23:59;4;4;
56688;PMS5003;42565;53.342;-1.534;2023-04-03T12:26:30;7;7;
56688;PMS5003;42565;53.342;-1.534;2023-04-03T12:29:14;11;8;
56688;PMS5003;42565;53.342;-1.534;2023-04-03T12:31:50;7;7;
56688;PMS5003;42565;53.342;-1.534;2023-04-03T12:34:37;6;6;
56688;PMS5003;42565;53.342;-1.534;2023-04-03T12:37:19;6;6;
56688;PMS5003;42565;53.342;-1.534;2023-04-03T12:40:05;7;6;
56688;PMS5003;42565;53.342;-1.534;2023-04-03T12:42:42;8;8;
56688;PMS5003;42565;53.342;-1.534;2023-04-03T12:45:24;7;7;
56688;PMS5003;42565;53.342;-1.534;2023-04-03T12:47:52;8;7;
56688;PMS5003;42565;53.342;-1.534;2023-04-03T12:50:22;6;6;
56688;PMS5003;42565;53.342;-1.534;2023-04-03T12:52:54;7;6;
56688;PMS5003;42565;53.342;-1.534;2023-04-03T12:55:26;8;6;
56688;PMS5003;42565;53.342;-1.534;2023-04-03T12:57:53;7;6;
56688;PMS5003;42565;53.342;-1.534;2023-04-03T13:00:25;7;7;
56688;PMS5003;42565;53.342;-1.534;2023-04-03T13:02:55;11;8;
56688;PMS5003;42565;53.342;-1.534;2023-04-03T13:05:23;7;7;
56688;PMS5003;42565;53.342;-1.534;2023-04-03T13:07:52;8;7;
56688;PMS5003;42565;53.342;-1.534;2023-04-03T13:10:24;9;8;
56688;PMS5003;42565;53.342;-1.534;2023-04-03T13:12:52;6;6;
56688;PMS5003;42565;53.342;-1.534;2023-04-03T13:15:22;8;8;
56688;PMS5003;42565;53.342;-1.534;2023-04-03T13:17:50;8;8;
56688;PMS5003;42565;53.342;-1.534;2023-04-03T13:20:20;23;22;
56688;PMS5003;42565;53.342;-1.534;2023-04-03T13:22:52;13;12;
56688;PMS5003;42565;53.342;-1.534;2023-04-03T13:25:24;16;16;
56688;PMS5003;42565;53.342;-1.534;2023-04-03T13:27:54;13;13;
56688;PMS5003;42565;53.342;-1.534;2023-04-03T13:30:25;10;10;
56688;PMS5003;42565;53.342;-1.534;2023-04-03T13:32:56;8;7;
56688;PMS5003;42565;53.342;-1.534;2023-04-03T13:35:27;14;14;
56688;PMS5003;42565;53.342;-1.534;2023-04-03T13:37:58;9;9;
56688;PMS5003;42565;53.342;-1.534;2023-04-03T13:40:27;15;14;
56688;PMS5003;42565;53.342;-1.534;2023-04-03T13:42:59;10;9;
56688;PMS5003;42565;53.342;-1.534;2023-04-03T13:45:30;9;8;
56688;PMS5003;42565;53.342;-1.534;2023-04-03T13:48:07;9;8;
56688;PMS5003;42565;53.342;-1.534;2023-04-03T13:50:50;7;7;
56688;PMS5003;42565;53.342;-1.534;2023-04-03T13:53:20;27;26;
56688;PMS5003;42565;53.342;-1.534;2023-04-03T13:55:53;46;44;
56688;PMS5003;42565;53.342;-1.534;2023-04-03T13:58:24;16;15;
56688;PMS5003;42565;53.342;-1.534;2023-04-03T14:00:53;9;9;
56688;PMS5003;42565;53.342;-1.534;2023-04-03T14:03:23;9;9;
56688;PMS5003;42565;53.342;-1.534;2023-04-03T14:05:52;7;5;
56688;PMS5003;42565;53.342;-1.534;2023-04-03T14:08:19;5;5;
56688;PMS5003;42565;53.342;-1.534;2023-04-03T14:10:47;7;7;
56688;PMS5003;42565;53.342;-1.534;2023-04-03T14:13:16;11;8;
56688;PMS5003;42565;53.342;-1.534;2023-04-03T14:15:45;9;9;
56688;PMS5003;42565;53.342;-1.534;2023-04-03T14:18:14;11;11;
56688;PMS5003;42565;53.342;-1.534;2023-04-03T14:20:44;9;8;
56688;PMS5003;42565;53.342;-1.534;2023-04-03T14:23:11;7;6;
56688;PMS5003;42565;53.342;-1.534;2023-04-03T14:25:38;7;7;
56688;PMS5003;42565;53.342;-1.534;2023-04-03T14:28:12;8;7;
56688;PMS5003;42565;53.342;-1.534;2023-04-03T14:30:43;10;9;
56688;PMS5003;42565;53.342;-1.534;2023-04-03T14:33:12;7;6;
56688;PMS5003;42565;53.342;-1.534;2023-04-03T14:35:42;8;8;
56688;PMS5003;42565;53.342;-1.534;2023-04-03T14:38:18;9;8;
56688;PMS5003;42565;53.342;-1.534;2023-04-03T14:40:49;9;7;
56688;PMS5003;42565;53.342;-1.534;2023-04-03T14:43:17;8;8;
56688;PMS5003;42565;53.342;-1.534;2023-04-03T14:45:45;10;9;
56688;PMS5003;42565;53.342;-1.534;2023-04-03T14:48:15;11;10;
56688;PMS5003;42565;53.342;-1.534;2023-04-03T14:50:46;11;9;
56688;PMS5003;42565;53.342;-1.534;2023-04-03T14:53:14;14;12;
56688;PMS5003;42565;53.342;-1.534;2023-04-03T14:55:42;6;6;
56688;PMS5003;42565;53.342;-1.534;2023-04-03T14:58:12;7;7;
56688;PMS5003;42565;53.342;-1.534;2023-04-03T15:00:40;8;7;
56688;PMS5003;42565;53.342;-1.534;2023-04-03T15:03:12;8;8;
56688;PMS5003;42565;53.342;-1.534;2023-04-03T15:05:41;14;13;
56688;PMS5003;42565;53.342;-1.534;2023-04-03T15:08:13;9;9;
56688;PMS5003;42565;53.342;-1.534;2023-04-03T15:10:45;8;7;
56688;PMS5003;42565;53.342;-1.534;2023-04-03T15:13:13;7;6;
56688;PMS5003;42565;53.342;-1.534;2023-04-03T15:15:40;19;18;
56688;PMS5003;42565;53.342;-1.534;2023-04-03T15:18:10;16;16;
56688;PMS5003;42565;53.342;-1.534;2023-04-03T15:20:43;20;19;
56688;PMS5003;42565;53.342;-1.534;2023-04-03T15:23:11;16;13;
56688;PMS5003;42565;53.342;-1.534;2023-04-03T15:25:39;9;9;
56688;PMS5003;42565;53.342;-1.534;2023-04-03T15:28:06;18;17;
56688;PMS5003;42565;53.342;-1.534;2023-04-03T15:30:36;17;16;
56688;PMS5003;42565;53.342;-1.534;2023-04-03T15:33:05;12;11;
56688;PMS5003;42565;53.342;-1.534;2023-04-03T15:35:33;13;12;
56688;PMS5003;42565;53.342;-1.534;2023-04-03T15:38:00;9;8;
56688;PMS5003;42565;53.342;-1.534;2023-04-03T15:40:28;6;6;
56688;PMS5003;42565;53.342;-1.534;2023-04-03T15:42:55;10;10;
56688;PMS5003;42565;53.342;-1.534;2023-04-03T15:45:21;11;11;
56688;PMS5003;42565;53.342;-1.534;2023-04-03T15:47:49;13;11;
56688;PMS5003;42565;53.342;-1.534;2023-04-03T15:50:17;9;9;
56688;PMS5003;42565;53.342;-1.534;2023-04-03T15:52:44;8;8;
56688;PMS5003;42565;53.342;-1.534;2023-04-03T15:55:11;7;7;
56688;PMS5003;42565;53.342;-1.534;2023-04-03T15:57:37;8;8;
56688;PMS5003;42565;53.342;-1.534;2023-04-03T16:00:05;12;10;
56688;PMS5003;42565;53.342;-1.534;2023-04-03T16:02:33;10;9;
56688;PMS5003;42565;53.342;-1.534;2023-04-03T16:05:00;13;11;
56688;PMS5003;42565;53.342;-1.534;2023-04-03T16:07:28;10;10;
56688;PMS5003;42565;53.342;-1.534;2023-04-03T16:09:56;11;10;
56688;PMS5003;42565;53.342;-1.534;2023-04-03T16:12:23;11;10;
56688;PMS5003;42565;53.342;-1.534;2023-04-03T16:14:49;13;12;
56688;PMS5003;42565;53.342;-1.534;2023-04-03T16:17:16;10;10;
56688;PMS5003;42565;53.342;-1.534;2023-04-03T16:19:44;7;7;
56688;PMS5003;42565;53.342;-1.534;2023-04-03T16:22:11;8;8;
56688;PMS5003;42565;53.342;-1.534;2023-04-03T16:24:39;11;10;
56688;PMS5003;42565;53.342;-1.534;2023-04-03T16:27:07;12;11;
56688;PMS5003;42565;53.342;-1.534;2023-04-03T16:29:34;11;11;
56688;PMS5003;42565;53.342;-1.534;2023-04-03T16:32:01;14;13;
56688;PMS5003;42565;53.342;-1.534;2023-04-03T16:34:29;17;14;
56688;PMS5003;42565;53.342;-1.534;2023-04-03T16:36:57;13;11;
56688;PMS5003;42565;53.342;-1.534;2023-04-03T16:39:23;16;15;
56688;PMS5003;42565;53.342;-1.534;2023-04-03T16:41:50;12;12;
56688;PMS5003;42565;53.342;-1.534;2023-04-03T16:44:18;12;10;
56688;PMS5003;42565;53.342;-1.534;2023-04-03T16:46:44;12;11;
56688;PMS5003;42565;53.342;-1.534;2023-04-03T16:49:12;14;12;
56688;PMS5003;42565;53.342;-1.534;2023-04-03T16:51:39;8;8;